sensor_id;sensor_type;location;lat;lon;timestamp;pressure;altitude;pressure_sealevel;temperature;humidity
45441;BME280;31189;38.790;-77.084;2024-02-28T00:01:03;100811.91;;;12.86;88.31
45441;BME280;31189;38.790;-77.084;2024-02-28T00:03:29;100809.81;;;12.41;90.18
45441;BME280;31189;38.790;-77.084;2024-02-28T00:05:54;100810.63;;;13.90;81.17
45441;BME280;31189;38.790;-77.084;2024-02-28T00:08:20;100810.61;;;13.93;80.63
45441;BME280;31189;38.790;-77.084;2024-02-28T00:10:46;100809.42;;;13.52;82.94
45441;BME280;31189;38.790;-77.084;2024-02-28T00:13:11;100811.97;;;14.20;77.85
45441;BME280;31189;38.790;-77.084;2024-02-28T00:15:37;100805.27;;;12.95;84.09
45441;BME280;31189;38.790;-77.084;2024-02-28T00:18:02;100814.28;;;14.33;78.56
45441;BME280;31189;38.790;-77.084;2024-02-28T00:20:27;100808.83;;;12.81;86.05
45441;BME280;31189;38.790;-77.084;2024-02-28T00:22:53;100811.14;;;14.35;79.42
45441;BME280;31189;38.790;-77.084;2024-02-28T00:25:19;100808.71;;;13.31;82.70
45441;BME280;31189;38.790;-77.084;2024-02-28T00:27:44;100812.17;;;14.30;78.00
45441;BME280;31189;38.790;-77.084;2024-02-28T00:30:10;100808.39;;;15.38;71.61
45441;BME280;31189;38.790;-77.084;2024-02-28T00:32:36;100802.33;;;15.68;70.65
45441;BME280;31189;38.790;-77.084;2024-02-28T00:35:01;100805.79;;;14.65;75.29
45441;BME280;31189;38.790;-77.084;2024-02-28T00:37:27;100809.39;;;15.20;73.70
45441;BME280;31189;38.790;-77.084;2024-02-28T00:39:52;100810.10;;;13.04;85.44
45441;BME280;31189;38.790;-77.084;2024-02-28T00:42:18;100812.45;;;14.56;74.95
45441;BME280;31189;38.790;-77.084;2024-02-28T00:44:44;100808.08;;;13.81;79.39
45441;BME280;31189;38.790;-77.084;2024-02-28T00:47:09;100807.79;;;15.37;72.95
45441;BME280;31189;38.790;-77.084;2024-02-28T00:49:34;100806.77;;;16.40;69.67
45441;BME280;31189;38.790;-77.084;2024-02-28T00:51:59;100805.48;;;15.85;70.47
45441;BME280;31189;38.790;-77.084;2024-02-28T00:54:25;100805.46;;;14.64;75.23
45441;BME280;31189;38.790;-77.084;2024-02-28T00:56:50;100809.20;;;16.25;69.80
45441;BME280;31189;38.790;-77.084;2024-02-28T00:59:17;100813.70;;;15.36;70.89
45441;BME280;31189;38.790;-77.084;2024-02-28T01:01:42;100821.14;;;13.75;80.31
45441;BME280;31189;38.790;-77.084;2024-02-28T01:04:08;100824.05;;;15.05;76.08
45441;BME280;31189;38.790;-77.084;2024-02-28T01:06:33;100817.92;;;13.21;82.31
45441;BME280;31189;38.790;-77.084;2024-02-28T01:08:59;100813.98;;;15.54;73.87
45441;BME280;31189;38.790;-77.084;2024-02-28T01:11:25;100811.19;;;14.67;74.65
45441;BME280;31189;38.790;-77.084;2024-02-28T01:13:50;100814.12;;;15.88;70.93
45441;BME280;31189;38.790;-77.084;2024-02-28T01:16:15;100814.28;;;14.38;76.85
45441;BME280;31189;38.790;-77.084;2024-02-28T01:18:41;100817.02;;;14.02;79.08
45441;BME280;31189;38.790;-77.084;2024-02-28T01:21:07;100820.67;;;15.39;73.67
45441;BME280;31189;38.790;-77.084;2024-02-28T01:23:32;100818.69;;;15.39;73.15
45441;BME280;31189;38.790;-77.084;2024-02-28T01:25:58;100826.23;;;14.37;77.89
45441;BME280;31189;38.790;-77.084;2024-02-28T01:28:23;100824.73;;;14.32;79.21
45441;BME280;31189;38.790;-77.084;2024-02-28T01:30:49;100824.47;;;13.71;84.90
45441;BME280;31189;38.790;-77.084;2024-02-28T01:33:15;100824.31;;;13.40;85.40
45441;BME280;31189;38.790;-77.084;2024-02-28T01:35:40;100819.74;;;13.11;88.84
45441;BME280;31189;38.790;-77.084;2024-02-28T01:38:06;100815.22;;;14.33;82.95
45441;BME280;31189;38.790;-77.084;2024-02-28T01:40:32;100810.88;;;14.02;82.05
45441;BME280;31189;38.790;-77.084;2024-02-28T01:43:02;100820.45;;;13.73;81.43
45441;BME280;31189;38.790;-77.084;2024-02-28T01:45:22;100824.93;;;14.68;80.29
45441;BME280;31189;38.790;-77.084;2024-02-28T01:47:48;100831.16;;;16.05;71.04
45441;BME280;31189;38.790;-77.084;2024-02-28T01:50:13;100837.32;;;13.95;81.10
45441;BME280;31189;38.790;-77.084;2024-02-28T01:52:39;100832.44;;;14.58;79.47
45441;BME280;31189;38.790;-77.084;2024-02-28T01:55:05;100826.48;;;13.54;85.76
45441;BME280;31189;38.790;-77.084;2024-02-28T01:57:30;100823.42;;;14.26;81.41
45441;BME280;31189;38.790;-77.084;2024-02-28T01:59:55;100830.72;;;14.17;80.98
45441;BME280;31189;38.790;-77.084;2024-02-28T02:02:20;100824.46;;;13.63;82.82
45441;BME280;31189;38.790;-77.084;2024-02-28T02:04:46;100817.96;;;12.32;92.08
45441;BME280;31189;38.790;-77.084;2024-02-28T02:07:11;100816.90;;;12.38;93.90
45441;BME280;31189;38.790;-77.084;2024-02-28T02:09:37;100816.98;;;13.06;90.20
45441;BME280;31189;38.790;-77.084;2024-02-28T02:12:03;100819.45;;;14.22;85.43
45441;BME280;31189;38.790;-77.084;2024-02-28T02:14:28;100825.87;;;15.17;77.78
45441;BME280;31189;38.790;-77.084;2024-02-28T02:16:54;100828.44;;;16.27;73.03
45441;BME280;31189;38.790;-77.084;2024-02-28T02:19:19;100820.21;;;16.13;74.22
45441;BME280;31189;38.790;-77.084;2024-02-28T02:21:50;100813.09;;;15.11;78.92
45441;BME280;31189;38.790;-77.084;2024-02-28T02:24:10;100812.43;;;15.23;78.85
45441;BME280;31189;38.790;-77.084;2024-02-28T02:26:35;100822.35;;;13.12;89.80
45441;BME280;31189;38.790;-77.084;2024-02-28T02:29:01;100825.32;;;14.05;82.74
45441;BME280;31189;38.790;-77.084;2024-02-28T02:31:27;100815.62;;;14.62;82.33
45441;BME280;31189;38.790;-77.084;2024-02-28T02:33:52;100814.91;;;14.80;81.00
45441;BME280;31189;38.790;-77.084;2024-02-28T02:36:18;100814.49;;;15.63;77.18
45441;BME280;31189;38.790;-77.084;2024-02-28T02:38:44;100817.44;;;16.56;73.38
45441;BME280;31189;38.790;-77.084;2024-02-28T02:41:09;100814.04;;;16.77;72.54
45441;BME280;31189;38.790;-77.084;2024-02-28T02:43:34;100805.49;;;16.18;73.74
45441;BME280;31189;38.790;-77.084;2024-02-28T02:46:00;100807.61;;;16.35;71.91
45441;BME280;31189;38.790;-77.084;2024-02-28T02:48:26;100803.66;;;16.67;70.03
45441;BME280;31189;38.790;-77.084;2024-02-28T02:50:51;100799.64;;;15.38;75.69
45441;BME280;31189;38.790;-77.084;2024-02-28T02:53:17;100799.12;;;15.09;77.32
45441;BME280;31189;38.790;-77.084;2024-02-28T02:55:42;100796.31;;;15.75;76.06
45441;BME280;31189;38.790;-77.084;2024-02-28T02:58:08;100793.96;;;15.28;78.57
45441;BME280;31189;38.790;-77.084;2024-02-28T03:00:33;100791.12;;;12.30;97.26
45441;BME280;31189;38.790;-77.084;2024-02-28T03:02:59;100789.72;;;13.68;88.42
45441;BME280;31189;38.790;-77.084;2024-02-28T03:05:24;100794.35;;;12.90;93.91
45441;BME280;31189;38.790;-77.084;2024-02-28T03:07:49;100784.95;;;13.65;94.83
45441;BME280;31189;38.790;-77.084;2024-02-28T03:10:15;100781.64;;;14.16;89.02
45441;BME280;31189;38.790;-77.084;2024-02-28T03:12:40;100781.30;;;15.10;84.25
45441;BME280;31189;38.790;-77.084;2024-02-28T03:15:06;100777.16;;;14.09;90.58
45441;BME280;31189;38.790;-77.084;2024-02-28T03:17:31;100768.35;;;12.50;100.00
45441;BME280;31189;38.790;-77.084;2024-02-28T03:19:57;100767.55;;;14.22;94.04
45441;BME280;31189;38.790;-77.084;2024-02-28T03:22:22;100768.98;;;14.18;92.79
45441;BME280;31189;38.790;-77.084;2024-02-28T03:24:47;100773.23;;;13.79;97.29
45441;BME280;31189;38.790;-77.084;2024-02-28T03:27:13;100779.36;;;12.83;100.00
45441;BME280;31189;38.790;-77.084;2024-02-28T03:29:38;100781.78;;;15.01;89.67
45441;BME280;31189;38.790;-77.084;2024-02-28T03:32:04;100776.08;;;13.20;100.00
45441;BME280;31189;38.790;-77.084;2024-02-28T03:34:29;100767.09;;;14.83;93.11
45441;BME280;31189;38.790;-77.084;2024-02-28T03:36:54;100757.54;;;15.65;87.26
45441;BME280;31189;38.790;-77.084;2024-02-28T03:39:20;100747.37;;;15.72;85.93
45441;BME280;31189;38.790;-77.084;2024-02-28T03:41:45;100739.85;;;16.48;82.25
45441;BME280;31189;38.790;-77.084;2024-02-28T03:44:10;100741.13;;;15.30;87.66
45441;BME280;31189;38.790;-77.084;2024-02-28T03:46:35;100744.08;;;15.00;89.82
45441;BME280;31189;38.790;-77.084;2024-02-28T03:49:01;100743.73;;;14.56;91.52
45441;BME280;31189;38.790;-77.084;2024-02-28T03:51:26;100730.96;;;15.43;86.48
45441;BME280;31189;38.790;-77.084;2024-02-28T03:53:51;100720.81;;;16.22;82.61
45441;BME280;31189;38.790;-77.084;2024-02-28T03:56:22;100732.80;;;12.66;100.00
45441;BME280;31189;38.790;-77.084;2024-02-28T03:58:41;100732.79;;;14.36;91.74
45441;BME280;31189;38.790;-77.084;2024-02-28T04:01:06;100728.07;;;14.43;91.39
45441;BME280;31189;38.790;-77.084;2024-02-28T04:03:32;100727.54;;;14.44;94.66
45441;BME280;31189;38.790;-77.084;2024-02-28T04:05:58;100736.83;;;13.40;99.67
45441;BME280;31189;38.790;-77.084;2024-02-28T04:08:23;100740.80;;;12.77;100.00
45441;BME280;31189;38.790;-77.084;2024-02-28T04:10:48;100745.37;;;14.29;95.02
45441;BME280;31189;38.790;-77.084;2024-02-28T04:13:13;100742.00;;;14.65;92.29
45441;BME280;31189;38.790;-77.084;2024-02-28T04:15:39;100736.40;;;14.17;93.54
45441;BME280;31189;38.790;-77.084;2024-02-28T04:18:04;100724.35;;;12.99;100.00
45441;BME280;31189;38.790;-77.084;2024-02-28T04:20:29;100714.01;;;15.18;91.02
45441;BME280;31189;38.790;-77.084;2024-02-28T04:22:54;100714.05;;;15.15;88.71
45441;BME280;31189;38.790;-77.084;2024-02-28T04:25:20;100711.23;;;15.67;85.63
45441;BME280;31189;38.790;-77.084;2024-02-28T04:27:45;100709.87;;;15.04;90.93
45441;BME280;31189;38.790;-77.084;2024-02-28T04:30:10;100708.41;;;16.35;82.34
45441;BME280;31189;38.790;-77.084;2024-02-28T04:32:36;100710.65;;;15.10;86.73
45441;BME280;31189;38.790;-77.084;2024-02-28T04:35:01;100712.81;;;13.97;92.33
45441;BME280;31189;38.790;-77.084;2024-02-28T04:37:26;100706.01;;;12.93;98.81
45441;BME280;31189;38.790;-77.084;2024-02-28T04:39:51;100705.18;;;14.37;90.44
45441;BME280;31189;38.790;-77.084;2024-02-28T04:42:17;100699.57;;;11.55;100.00
45441;BME280;31189;38.790;-77.084;2024-02-28T04:44:42;100701.38;;;14.29;94.99
45441;BME280;31189;38.790;-77.084;2024-02-28T04:47:07;100699.23;;;11.13;100.00
45441;BME280;31189;38.790;-77.084;2024-02-28T04:49:36;100699.52;;;12.44;100.00
45441;BME280;31189;38.790;-77.084;2024-02-28T04:51:58;100692.60;;;13.10;100.00
45441;BME280;31189;38.790;-77.084;2024-02-28T04:54:24;100684.58;;;13.36;100.00
45441;BME280;31189;38.790;-77.084;2024-02-28T04:56:49;100681.11;;;12.79;100.00
45441;BME280;31189;38.790;-77.084;2024-02-28T04:59:15;100676.82;;;14.65;92.00
45441;BME280;31189;38.790;-77.084;2024-02-28T05:01:41;100660.85;;;13.74;93.15
45441;BME280;31189;38.790;-77.084;2024-02-28T05:04:07;100648.91;;;12.90;99.22
45441;BME280;31189;38.790;-77.084;2024-02-28T05:06:31;100651.16;;;13.40;99.56
45441;BME280;31189;38.790;-77.084;2024-02-28T05:08:57;100638.03;;;12.41;100.00
45441;BME280;31189;38.790;-77.084;2024-02-28T05:11:22;100633.15;;;13.43;99.04
45441;BME280;31189;38.790;-77.084;2024-02-28T05:13:47;100636.74;;;11.90;100.00
45441;BME280;31189;38.790;-77.084;2024-02-28T05:16:13;100634.59;;;13.84;94.92
45441;BME280;31189;38.790;-77.084;2024-02-28T05:18:38;100630.22;;;14.03;93.49
45441;BME280;31189;38.790;-77.084;2024-02-28T05:21:04;100622.63;;;13.43;92.92
45441;BME280;31189;38.790;-77.084;2024-02-28T05:23:29;100616.99;;;15.17;85.32
45441;BME280;31189;38.790;-77.084;2024-02-28T05:25:55;100612.73;;;14.62;86.17
45441;BME280;31189;38.790;-77.084;2024-02-28T05:28:20;100610.07;;;14.54;84.73
45441;BME280;31189;38.790;-77.084;2024-02-28T05:30:45;100593.28;;;15.24;83.31
45441;BME280;31189;38.790;-77.084;2024-02-28T05:33:11;100597.89;;;17.10;75.17
45441;BME280;31189;38.790;-77.084;2024-02-28T05:35:36;100606.08;;;15.44;79.63
45441;BME280;31189;38.790;-77.084;2024-02-28T05:38:01;100611.12;;;15.43;77.91
45441;BME280;31189;38.790;-77.084;2024-02-28T05:40:26;100614.77;;;13.82;86.26
45441;BME280;31189;38.790;-77.084;2024-02-28T05:42:52;100620.20;;;14.81;82.24
45441;BME280;31189;38.790;-77.084;2024-02-28T05:45:17;100617.37;;;15.40;79.06
45441;BME280;31189;38.790;-77.084;2024-02-28T05:47:43;100608.49;;;15.03;79.49
45441;BME280;31189;38.790;-77.084;2024-02-28T05:50:09;100596.27;;;14.59;83.14
45441;BME280;31189;38.790;-77.084;2024-02-28T05:52:33;100579.72;;;15.30;78.91
45441;BME280;31189;38.790;-77.084;2024-02-28T05:54:58;100592.24;;;13.05;92.13
45441;BME280;31189;38.790;-77.084;2024-02-28T05:57:24;100585.95;;;14.03;86.10
45441;BME280;31189;38.790;-77.084;2024-02-28T05:59:49;100586.27;;;14.65;82.97
45441;BME280;31189;38.790;-77.084;2024-02-28T06:02:14;100581.67;;;13.58;88.82
45441;BME280;31189;38.790;-77.084;2024-02-28T06:04:40;100565.95;;;14.11;86.10
45441;BME280;31189;38.790;-77.084;2024-02-28T06:07:05;100552.06;;;12.96;91.56
45441;BME280;31189;38.790;-77.084;2024-02-28T06:09:31;100529.73;;;13.29;90.53
45441;BME280;31189;38.790;-77.084;2024-02-28T06:11:56;100528.35;;;14.26;84.71
45441;BME280;31189;38.790;-77.084;2024-02-28T06:14:22;100534.72;;;14.09;84.19
45441;BME280;31189;38.790;-77.084;2024-02-28T06:16:47;100544.64;;;13.59;87.41
45441;BME280;31189;38.790;-77.084;2024-02-28T06:19:13;100546.60;;;13.61;85.71
45441;BME280;31189;38.790;-77.084;2024-02-28T06:21:38;100546.10;;;15.05;78.00
45441;BME280;31189;38.790;-77.084;2024-02-28T06:24:03;100546.62;;;15.39;75.34
45441;BME280;31189;38.790;-77.084;2024-02-28T06:26:29;100551.40;;;15.94;73.86
45441;BME280;31189;38.790;-77.084;2024-02-28T06:28:54;100549.97;;;14.96;76.22
45441;BME280;31189;38.790;-77.084;2024-02-28T06:31:20;100545.32;;;15.74;74.03
45441;BME280;31189;38.790;-77.084;2024-02-28T06:33:45;100543.20;;;16.00;73.33
45441;BME280;31189;38.790;-77.084;2024-02-28T06:36:10;100536.99;;;16.35;71.95
45441;BME280;31189;38.790;-77.084;2024-02-28T06:38:36;100537.94;;;15.17;75.00
45441;BME280;31189;38.790;-77.084;2024-02-28T06:41:01;100537.05;;;16.74;69.39
45441;BME280;31189;38.790;-77.084;2024-02-28T06:43:26;100538.07;;;16.93;69.06
45441;BME280;31189;38.790;-77.084;2024-02-28T06:45:51;100540.51;;;13.61;80.05
45441;BME280;31189;38.790;-77.084;2024-02-28T06:48:17;100533.69;;;14.25;78.61
45441;BME280;31189;38.790;-77.084;2024-02-28T06:50:42;100524.30;;;14.94;77.15
45441;BME280;31189;38.790;-77.084;2024-02-28T06:53:08;100509.86;;;13.46;82.18
45441;BME280;31189;38.790;-77.084;2024-02-28T06:55:33;100500.10;;;12.12;90.27
45441;BME280;31189;38.790;-77.084;2024-02-28T06:57:59;100494.05;;;13.82;82.96
45441;BME280;31189;38.790;-77.084;2024-02-28T07:00:24;100493.23;;;11.84;91.97
45441;BME280;31189;38.790;-77.084;2024-02-28T07:02:50;100481.86;;;12.77;87.26
45441;BME280;31189;38.790;-77.084;2024-02-28T07:05:15;100470.41;;;11.95;93.99
45441;BME280;31189;38.790;-77.084;2024-02-28T07:07:40;100460.83;;;12.92;87.78
45441;BME280;31189;38.790;-77.084;2024-02-28T07:10:07;100459.91;;;13.88;83.10
45441;BME280;31189;38.790;-77.084;2024-02-28T07:12:31;100466.30;;;11.98;91.27
45441;BME280;31189;38.790;-77.084;2024-02-28T07:14:56;100477.29;;;13.54;82.60
45441;BME280;31189;38.790;-77.084;2024-02-28T07:17:22;100483.80;;;12.27;92.10
45441;BME280;31189;38.790;-77.084;2024-02-28T07:19:48;100475.43;;;12.76;87.95
45441;BME280;31189;38.790;-77.084;2024-02-28T07:22:13;100465.07;;;12.72;89.68
45441;BME280;31189;38.790;-77.084;2024-02-28T07:24:39;100465.96;;;13.95;80.99
45441;BME280;31189;38.790;-77.084;2024-02-28T07:27:04;100463.82;;;13.44;82.95
45441;BME280;31189;38.790;-77.084;2024-02-28T07:29:30;100471.99;;;11.37;95.09
45441;BME280;31189;38.790;-77.084;2024-02-28T07:31:56;100472.62;;;11.93;93.33
45441;BME280;31189;38.790;-77.084;2024-02-28T07:34:21;100474.54;;;14.15;82.06
45441;BME280;31189;38.790;-77.084;2024-02-28T07:36:46;100475.38;;;12.41;89.10
45441;BME280;31189;38.790;-77.084;2024-02-28T07:39:12;100479.26;;;14.01;81.55
45441;BME280;31189;38.790;-77.084;2024-02-28T07:41:37;100473.07;;;15.06;75.30
45441;BME280;31189;38.790;-77.084;2024-02-28T07:44:02;100475.58;;;12.61;83.73
45441;BME280;31189;38.790;-77.084;2024-02-28T07:46:28;100483.17;;;12.26;87.66
45441;BME280;31189;38.790;-77.084;2024-02-28T07:48:53;100487.77;;;13.31;81.35
45441;BME280;31189;38.790;-77.084;2024-02-28T07:51:19;100483.85;;;13.29;81.53
45441;BME280;31189;38.790;-77.084;2024-02-28T07:53:44;100491.04;;;12.54;85.58
45441;BME280;31189;38.790;-77.084;2024-02-28T07:56:17;100490.09;;;11.66;91.95
45441;BME280;31189;38.790;-77.084;2024-02-28T07:58:34;100485.23;;;12.62;88.05
45441;BME280;31189;38.790;-77.084;2024-02-28T08:00:59;100474.48;;;13.61;82.25
45441;BME280;31189;38.790;-77.084;2024-02-28T08:03:25;100473.85;;;14.66;77.97
45441;BME280;31189;38.790;-77.084;2024-02-28T08:05:50;100473.88;;;13.25;81.92
45441;BME280;31189;38.790;-77.084;2024-02-28T08:08:15;100469.16;;;13.08;82.78
45441;BME280;31189;38.790;-77.084;2024-02-28T08:10:41;100461.04;;;11.84;92.19
45441;BME280;31189;38.790;-77.084;2024-02-28T08:13:06;100467.08;;;13.57;82.70
45441;BME280;31189;38.790;-77.084;2024-02-28T08:15:32;100477.08;;;12.27;88.44
45441;BME280;31189;38.790;-77.084;2024-02-28T08:17:57;100479.15;;;13.27;83.77
45441;BME280;31189;38.790;-77.084;2024-02-28T08:20:22;100473.15;;;12.81;84.20
45441;BME280;31189;38.790;-77.084;2024-02-28T08:22:47;100466.22;;;12.56;83.71
45441;BME280;31189;38.790;-77.084;2024-02-28T08:25:13;100472.49;;;13.93;78.68
45441;BME280;31189;38.790;-77.084;2024-02-28T08:27:39;100467.65;;;13.95;78.10
45441;BME280;31189;38.790;-77.084;2024-02-28T08:30:05;100457.31;;;12.14;84.75
45441;BME280;31189;38.790;-77.084;2024-02-28T08:32:29;100460.75;;;12.33;83.33
45441;BME280;31189;38.790;-77.084;2024-02-28T08:34:54;100448.19;;;12.33;83.60
45441;BME280;31189;38.790;-77.084;2024-02-28T08:37:20;100433.21;;;13.70;77.58
45441;BME280;31189;38.790;-77.084;2024-02-28T08:39:45;100426.86;;;13.30;79.00
45441;BME280;31189;38.790;-77.084;2024-02-28T08:42:10;100429.75;;;13.91;74.99
45441;BME280;31189;38.790;-77.084;2024-02-28T08:44:36;100441.99;;;11.77;85.43
45441;BME280;31189;38.790;-77.084;2024-02-28T08:47:01;100431.72;;;12.59;82.36
45441;BME280;31189;38.790;-77.084;2024-02-28T08:49:27;100421.61;;;11.95;86.27
45441;BME280;31189;38.790;-77.084;2024-02-28T08:51:52;100405.09;;;12.69;81.65
45441;BME280;31189;38.790;-77.084;2024-02-28T08:54:18;100400.16;;;12.63;82.07
45441;BME280;31189;38.790;-77.084;2024-02-28T08:56:43;100399.78;;;14.23;75.65
45441;BME280;31189;38.790;-77.084;2024-02-28T08:59:09;100400.11;;;12.75;80.19
45441;BME280;31189;38.790;-77.084;2024-02-28T09:01:35;100402.06;;;13.44;77.95
45441;BME280;31189;38.790;-77.084;2024-02-28T09:04:00;100402.51;;;12.74;83.04
45441;BME280;31189;38.790;-77.084;2024-02-28T09:06:25;100404.11;;;12.81;80.36
45441;BME280;31189;38.790;-77.084;2024-02-28T09:08:51;100409.18;;;13.15;79.51
45441;BME280;31189;38.790;-77.084;2024-02-28T09:11:16;100408.01;;;14.40;74.81
45441;BME280;31189;38.790;-77.084;2024-02-28T09:13:42;100411.71;;;13.01;77.75
45441;BME280;31189;38.790;-77.084;2024-02-28T09:16:08;100407.50;;;13.87;75.91
45441;BME280;31189;38.790;-77.084;2024-02-28T09:18:33;100405.19;;;12.34;82.59
45441;BME280;31189;38.790;-77.084;2024-02-28T09:20:58;100402.61;;;12.36;83.40
45441;BME280;31189;38.790;-77.084;2024-02-28T09:23:23;100401.24;;;14.47;73.58
45441;BME280;31189;38.790;-77.084;2024-02-28T09:25:48;100394.41;;;12.78;80.86
45441;BME280;31189;38.790;-77.084;2024-02-28T09:28:14;100378.71;;;13.45;78.60
45441;BME280;31189;38.790;-77.084;2024-02-28T09:30:39;100372.23;;;13.14;79.23
45441;BME280;31189;38.790;-77.084;2024-02-28T09:33:05;100366.05;;;12.84;82.09
45441;BME280;31189;38.790;-77.084;2024-02-28T09:35:30;100372.52;;;14.42;74.35
45441;BME280;31189;38.790;-77.084;2024-02-28T09:37:56;100366.97;;;13.48;78.01
45441;BME280;31189;38.790;-77.084;2024-02-28T09:40:21;100356.40;;;12.23;85.69
45441;BME280;31189;38.790;-77.084;2024-02-28T09:42:51;100352.53;;;13.54;79.38
45441;BME280;31189;38.790;-77.084;2024-02-28T09:45:12;100361.66;;;13.04;80.70
45441;BME280;31189;38.790;-77.084;2024-02-28T09:47:37;100358.39;;;14.29;74.34
45441;BME280;31189;38.790;-77.084;2024-02-28T09:50:04;100363.48;;;13.29;79.07
45441;BME280;31189;38.790;-77.084;2024-02-28T09:52:28;100363.87;;;13.55;78.35
45441;BME280;31189;38.790;-77.084;2024-02-28T09:54:54;100358.17;;;14.55;72.96
45441;BME280;31189;38.790;-77.084;2024-02-28T09:57:19;100355.63;;;15.53;70.09
45441;BME280;31189;38.790;-77.084;2024-02-28T09:59:44;100347.81;;;15.23;71.87
45441;BME280;31189;38.790;-77.084;2024-02-28T10:02:11;100336.67;;;14.19;74.75
45441;BME280;31189;38.790;-77.084;2024-02-28T10:04:37;100342.07;;;13.94;75.46
45441;BME280;31189;38.790;-77.084;2024-02-28T10:07:10;100345.81;;;12.28;85.29
45441;BME280;31189;38.790;-77.084;2024-02-28T10:09:26;100333.01;;;13.16;82.12
45441;BME280;31189;38.790;-77.084;2024-02-28T10:11:52;100327.65;;;13.64;80.25
45441;BME280;31189;38.790;-77.084;2024-02-28T10:14:18;100327.13;;;13.02;84.76
45441;BME280;31189;38.790;-77.084;2024-02-28T10:16:43;100321.86;;;13.48;81.03
45441;BME280;31189;38.790;-77.084;2024-02-28T10:19:09;100321.42;;;13.64;80.26
45441;BME280;31189;38.790;-77.084;2024-02-28T10:21:34;100316.33;;;12.02;86.18
45441;BME280;31189;38.790;-77.084;2024-02-28T10:23:59;100317.06;;;12.68;84.61
45441;BME280;31189;38.790;-77.084;2024-02-28T10:26:25;100312.04;;;12.29;89.11
45441;BME280;31189;38.790;-77.084;2024-02-28T10:28:50;100308.46;;;12.14;86.88
45441;BME280;31189;38.790;-77.084;2024-02-28T10:31:15;100295.61;;;12.57;89.03
45441;BME280;31189;38.790;-77.084;2024-02-28T10:33:41;100293.80;;;13.14;86.38
45441;BME280;31189;38.790;-77.084;2024-02-28T10:36:06;100282.83;;;12.35;87.77
45441;BME280;31189;38.790;-77.084;2024-02-28T10:38:31;100291.26;;;15.05;76.40
45441;BME280;31189;38.790;-77.084;2024-02-28T10:40:58;100286.13;;;13.54;80.32
45441;BME280;31189;38.790;-77.084;2024-02-28T10:43:23;100284.95;;;13.01;84.40
45441;BME280;31189;38.790;-77.084;2024-02-28T10:45:48;100293.29;;;13.93;79.94
45441;BME280;31189;38.790;-77.084;2024-02-28T10:48:15;100280.95;;;13.43;80.99
45441;BME280;31189;38.790;-77.084;2024-02-28T10:50:38;100276.77;;;16.09;70.86
45441;BME280;31189;38.790;-77.084;2024-02-28T10:53:04;100278.72;;;14.68;72.97
45441;BME280;31189;38.790;-77.084;2024-02-28T10:55:33;100293.00;;;12.94;82.55
45441;BME280;31189;38.790;-77.084;2024-02-28T10:58:01;100292.43;;;14.32;77.41
45441;BME280;31189;38.790;-77.084;2024-02-28T11:00:20;100297.15;;;16.65;67.69
45441;BME280;31189;38.790;-77.084;2024-02-28T11:02:45;100290.12;;;14.24;76.94
45441;BME280;31189;38.790;-77.084;2024-02-28T11:05:10;100281.16;;;14.06;77.87
45441;BME280;31189;38.790;-77.084;2024-02-28T11:07:35;100272.11;;;14.67;75.94
45441;BME280;31189;38.790;-77.084;2024-02-28T11:10:05;100267.89;;;13.46;81.05
45441;BME280;31189;38.790;-77.084;2024-02-28T11:12:27;100269.20;;;13.28;82.97
45441;BME280;31189;38.790;-77.084;2024-02-28T11:14:57;100271.90;;;13.68;80.59
45441;BME280;31189;38.790;-77.084;2024-02-28T11:17:26;100279.17;;;13.99;78.08
45441;BME280;31189;38.790;-77.084;2024-02-28T11:19:42;100283.44;;;13.11;82.99
45441;BME280;31189;38.790;-77.084;2024-02-28T11:22:08;100292.94;;;14.41;79.27
45441;BME280;31189;38.790;-77.084;2024-02-28T11:24:34;100276.68;;;13.23;84.57
45441;BME280;31189;38.790;-77.084;2024-02-28T11:26:58;100278.61;;;14.04;78.72
45441;BME280;31189;38.790;-77.084;2024-02-28T11:29:25;100252.91;;;13.16;84.64
45441;BME280;31189;38.790;-77.084;2024-02-28T11:31:49;100240.06;;;13.17;84.61
45441;BME280;31189;38.790;-77.084;2024-02-28T11:34:14;100248.58;;;12.03;91.56
45441;BME280;31189;38.790;-77.084;2024-02-28T11:36:41;100245.96;;;12.91;87.81
45441;BME280;31189;38.790;-77.084;2024-02-28T11:39:06;100253.04;;;13.63;83.15
45441;BME280;31189;38.790;-77.084;2024-02-28T11:41:30;100252.33;;;13.16;85.17
45441;BME280;31189;38.790;-77.084;2024-02-28T11:43:56;100255.22;;;13.06;84.98
45441;BME280;31189;38.790;-77.084;2024-02-28T11:46:21;100263.59;;;13.92;84.61
45441;BME280;31189;38.790;-77.084;2024-02-28T11:48:47;100274.61;;;15.91;74.01
45441;BME280;31189;38.790;-77.084;2024-02-28T11:51:12;100282.69;;;13.77;83.94
45441;BME280;31189;38.790;-77.084;2024-02-28T11:53:37;100282.61;;;13.75;84.53
45441;BME280;31189;38.790;-77.084;2024-02-28T11:56:03;100264.68;;;14.89;75.57
45441;BME280;31189;38.790;-77.084;2024-02-28T11:58:27;100261.75;;;14.62;77.28
45441;BME280;31189;38.790;-77.084;2024-02-28T12:00:53;100267.48;;;13.16;83.86
45441;BME280;31189;38.790;-77.084;2024-02-28T12:03:21;100264.82;;;13.24;84.59
45441;BME280;31189;38.790;-77.084;2024-02-28T12:05:43;100259.53;;;13.36;84.39
45441;BME280;31189;38.790;-77.084;2024-02-28T12:08:08;100264.82;;;14.27;79.43
45441;BME280;31189;38.790;-77.084;2024-02-28T12:10:34;100276.03;;;14.98;75.81
45441;BME280;31189;38.790;-77.084;2024-02-28T12:13:00;100274.56;;;13.56;81.89
45441;BME280;31189;38.790;-77.084;2024-02-28T12:15:24;100280.89;;;14.18;79.16
45441;BME280;31189;38.790;-77.084;2024-02-28T12:17:49;100275.94;;;15.08;74.52
45441;BME280;31189;38.790;-77.084;2024-02-28T12:20:15;100271.62;;;14.71;77.42